sensor_id;sensor_type;location;lat;lon;timestamp;temperature;humidity
59146;DHT22;44928;53.074;6.646;2023-07-24T00:02:03;17.40;99.90
59146;DHT22;44928;53.074;6.646;2023-07-24T00:04:31;17.40;99.90
59146;DHT22;44928;53.074;6.646;2023-07-24T00:06:57;17.40;99.90
59146;DHT22;44928;53.074;6.646;2023-07-24T00:09:23;17.30;99.90
59146;DHT22;44928;53.074;6.646;2023-07-24T00:11:49;17.30;99.90
59146;DHT22;44928;53.074;6.646;2023-07-24T00:14:16;17.30;99.90
59146;DHT22;44928;53.074;6.646;2023-07-24T00:16:42;17.30;99.90
59146;DHT22;44928;53.074;6.646;2023-07-24T00:19:07;17.50;99.90
59146;DHT22;44928;53.074;6.646;2023-07-24T00:21:33;17.20;99.90
59146;DHT22;44928;53.074;6.646;2023-07-24T00:23:59;17.20;99.90
59146;DHT22;44928;53.074;6.646;2023-07-24T00:26:25;17.30;99.90
59146;DHT22;44928;53.074;6.646;2023-07-24T00:28:51;17.00;99.90
59146;DHT22;44928;53.074;6.646;2023-07-24T00:31:17;17.20;99.90
59146;DHT22;44928;53.074;6.646;2023-07-24T00:33:42;17.10;99.90
59146;DHT22;44928;53.074;6.646;2023-07-24T00:36:08;17.20;99.90
59146;DHT22;44928;53.074;6.646;2023-07-24T00:38:34;17.00;99.90
59146;DHT22;44928;53.074;6.646;2023-07-24T00:41:00;17.10;99.90
59146;DHT22;44928;53.074;6.646;2023-07-24T00:43:26;17.00;99.90
59146;DHT22;44928;53.074;6.646;2023-07-24T00:45:52;17.20;99.90
59146;DHT22;44928;53.074;6.646;2023-07-24T00:48:19;17.10;99.90
59146;DHT22;44928;53.074;6.646;2023-07-24T00:50:45;17.00;99.90
59146;DHT22;44928;53.074;6.646;2023-07-24T00:53:12;17.00;99.90
59146;DHT22;44928;53.074;6.646;2023-07-24T00:55:39;17.00;99.90
59146;DHT22;44928;53.074;6.646;2023-07-24T00:58:06;16.90;99.90
59146;DHT22;44928;53.074;6.646;2023-07-24T01:00:32;17.00;99.90
59146;DHT22;44928;53.074;6.646;2023-07-24T01:02:59;16.90;99.90
59146;DHT22;44928;53.074;6.646;2023-07-24T01:05:26;16.80;99.90
59146;DHT22;44928;53.074;6.646;2023-07-24T01:07:55;16.70;99.90
59146;DHT22;44928;53.074;6.646;2023-07-24T01:10:20;16.90;99.90
59146;DHT22;44928;53.074;6.646;2023-07-24T01:13:05;16.90;99.90
59146;DHT22;44928;53.074;6.646;2023-07-24T01:15:37;16.90;99.90
59146;DHT22;44928;53.074;6.646;2023-07-24T01:18:08;17.10;99.90
59146;DHT22;44928;53.074;6.646;2023-07-24T01:20:37;16.90;99.90
59146;DHT22;44928;53.074;6.646;2023-07-24T01:25:58;16.80;99.90
59146;DHT22;44928;53.074;6.646;2023-07-24T01:28:25;16.80;99.90
59146;DHT22;44928;53.074;6.646;2023-07-24T01:30:52;16.80;99.90
59146;DHT22;44928;53.074;6.646;2023-07-24T01:33:21;16.90;99.90
59146;DHT22;44928;53.074;6.646;2023-07-24T01:35:57;17.20;99.90
59146;DHT22;44928;53.074;6.646;2023-07-24T01:38:36;17.00;99.90
59146;DHT22;44928;53.074;6.646;2023-07-24T01:41:05;16.90;99.90
59146;DHT22;44928;53.074;6.646;2023-07-24T01:43:34;16.80;99.90
59146;DHT22;44928;53.074;6.646;2023-07-24T01:46:01;17.00;99.90
59146;DHT22;44928;53.074;6.646;2023-07-24T01:48:27;16.80;99.90
59146;DHT22;44928;53.074;6.646;2023-07-24T01:50:53;16.90;99.90
59146;DHT22;44928;53.074;6.646;2023-07-24T01:53:18;17.30;99.90
59146;DHT22;44928;53.074;6.646;2023-07-24T01:55:44;16.90;99.90
59146;DHT22;44928;53.074;6.646;2023-07-24T01:58:10;17.00;99.90
59146;DHT22;44928;53.074;6.646;2023-07-24T02:00:36;17.00;99.90
59146;DHT22;44928;53.074;6.646;2023-07-24T02:03:02;17.10;99.90
59146;DHT22;44928;53.074;6.646;2023-07-24T02:05:27;17.30;99.90
59146;DHT22;44928;53.074;6.646;2023-07-24T02:07:53;17.10;99.90
59146;DHT22;44928;53.074;6.646;2023-07-24T02:10:19;17.10;99.90
59146;DHT22;44928;53.074;6.646;2023-07-24T02:12:45;17.10;99.90
59146;DHT22;44928;53.074;6.646;2023-07-24T02:15:11;16.90;99.90
59146;DHT22;44928;53.074;6.646;2023-07-24T02:17:36;17.00;99.90
59146;DHT22;44928;53.074;6.646;2023-07-24T02:20:03;17.00;99.90
59146;DHT22;44928;53.074;6.646;2023-07-24T02:22:29;17.10;99.90
59146;DHT22;44928;53.074;6.646;2023-07-24T02:24:54;17.20;99.90
59146;DHT22;44928;53.074;6.646;2023-07-24T02:27:28;17.20;99.90
59146;DHT22;44928;53.074;6.646;2023-07-24T02:29:56;17.00;99.90
59146;DHT22;44928;53.074;6.646;2023-07-24T02:32:23;16.90;99.90
59146;DHT22;44928;53.074;6.646;2023-07-24T02:34:50;17.00;99.90
59146;DHT22;44928;53.074;6.646;2023-07-24T02:37:16;16.90;99.90
59146;DHT22;44928;53.074;6.646;2023-07-24T02:39:42;17.00;99.90
59146;DHT22;44928;53.074;6.646;2023-07-24T02:42:08;17.00;99.90
59146;DHT22;44928;53.074;6.646;2023-07-24T02:44:34;17.00;99.90
59146;DHT22;44928;53.074;6.646;2023-07-24T02:47:00;16.80;99.90
59146;DHT22;44928;53.074;6.646;2023-07-24T02:49:27;16.90;99.90
59146;DHT22;44928;53.074;6.646;2023-07-24T02:51:53;16.90;99.90
59146;DHT22;44928;53.074;6.646;2023-07-24T02:54:18;16.90;99.90
59146;DHT22;44928;53.074;6.646;2023-07-24T02:56:44;16.80;99.90
59146;DHT22;44928;53.074;6.646;2023-07-24T02:59:10;16.90;99.90
59146;DHT22;44928;53.074;6.646;2023-07-24T03:01:36;17.20;99.90
59146;DHT22;44928;53.074;6.646;2023-07-24T03:04:02;16.80;99.90
59146;DHT22;44928;53.074;6.646;2023-07-24T03:06:28;16.90;99.90
59146;DHT22;44928;53.074;6.646;2023-07-24T03:08:54;16.70;99.90
59146;DHT22;44928;53.074;6.646;2023-07-24T03:11:20;16.90;99.90
59146;DHT22;44928;53.074;6.646;2023-07-24T03:13:46;16.90;99.90
59146;DHT22;44928;53.074;6.646;2023-07-24T03:16:11;16.90;99.90
59146;DHT22;44928;53.074;6.646;2023-07-24T03:18:37;16.90;99.90
59146;DHT22;44928;53.074;6.646;2023-07-24T03:21:03;16.70;99.90
59146;DHT22;44928;53.074;6.646;2023-07-24T03:23:29;16.80;99.90
59146;DHT22;44928;53.074;6.646;2023-07-24T03:25:55;16.80;99.90
59146;DHT22;44928;53.074;6.646;2023-07-24T03:28:21;16.90;99.90
59146;DHT22;44928;53.074;6.646;2023-07-24T03:30:47;16.70;99.90
59146;DHT22;44928;53.074;6.646;2023-07-24T03:33:12;17.00;99.90
59146;DHT22;44928;53.074;6.646;2023-07-24T03:35:39;16.80;99.90
59146;DHT22;44928;53.074;6.646;2023-07-24T03:38:05;16.70;99.90
59146;DHT22;44928;53.074;6.646;2023-07-24T03:40:31;16.80;99.90
59146;DHT22;44928;53.074;6.646;2023-07-24T03:42:57;16.70;99.90
59146;DHT22;44928;53.074;6.646;2023-07-24T03:45:23;16.80;99.90
59146;DHT22;44928;53.074;6.646;2023-07-24T03:47:48;16.70;99.90
59146;DHT22;44928;53.074;6.646;2023-07-24T03:50:15;16.60;99.90
59146;DHT22;44928;53.074;6.646;2023-07-24T03:52:40;16.80;99.90
59146;DHT22;44928;53.074;6.646;2023-07-24T03:55:07;16.70;99.90
59146;DHT22;44928;53.074;6.646;2023-07-24T03:57:36;16.70;99.90
59146;DHT22;44928;53.074;6.646;2023-07-24T04:00:02;16.90;99.90
59146;DHT22;44928;53.074;6.646;2023-07-24T04:02:28;16.90;99.90
59146;DHT22;44928;53.074;6.646;2023-07-24T04:04:54;16.80;99.90
59146;DHT22;44928;53.074;6.646;2023-07-24T04:07:20;16.80;99.90
59146;DHT22;44928;53.074;6.646;2023-07-24T04:09:46;16.90;99.90
59146;DHT22;44928;53.074;6.646;2023-07-24T04:12:12;17.00;99.90
59146;DHT22;44928;53.074;6.646;2023-07-24T04:14:37;16.60;99.90
59146;DHT22;44928;53.074;6.646;2023-07-24T04:17:03;16.60;99.90
59146;DHT22;44928;53.074;6.646;2023-07-24T04:19:29;16.70;99.90
59146;DHT22;44928;53.074;6.646;2023-07-24T04:21:55;16.90;99.90
59146;DHT22;44928;53.074;6.646;2023-07-24T04:24:21;16.90;99.90
59146;DHT22;44928;53.074;6.646;2023-07-24T04:26:47;16.90;99.90
59146;DHT22;44928;53.074;6.646;2023-07-24T04:29:12;16.90;99.90
59146;DHT22;44928;53.074;6.646;2023-07-24T04:31:38;16.90;99.90
59146;DHT22;44928;53.074;6.646;2023-07-24T04:34:04;16.90;99.90
59146;DHT22;44928;53.074;6.646;2023-07-24T04:36:30;16.90;99.90
59146;DHT22;44928;53.074;6.646;2023-07-24T04:38:58;16.90;99.90
59146;DHT22;44928;53.074;6.646;2023-07-24T04:41:27;16.80;99.90
59146;DHT22;44928;53.074;6.646;2023-07-24T04:43:52;16.80;99.90
59146;DHT22;44928;53.074;6.646;2023-07-24T04:46:18;16.80;99.90
59146;DHT22;44928;53.074;6.646;2023-07-24T04:48:44;17.00;99.90
59146;DHT22;44928;53.074;6.646;2023-07-24T04:51:10;16.90;99.90
59146;DHT22;44928;53.074;6.646;2023-07-24T04:53:35;16.90;99.90
59146;DHT22;44928;53.074;6.646;2023-07-24T04:56:01;16.80;99.90
59146;DHT22;44928;53.074;6.646;2023-07-24T04:58:27;16.80;99.90
59146;DHT22;44928;53.074;6.646;2023-07-24T05:00:53;16.90;99.90
59146;DHT22;44928;53.074;6.646;2023-07-24T05:03:19;16.80;99.90
59146;DHT22;44928;53.074;6.646;2023-07-24T05:05:48;16.70;99.90
59146;DHT22;44928;53.074;6.646;2023-07-24T05:08:15;16.90;99.90
59146;DHT22;44928;53.074;6.646;2023-07-24T05:10:40;16.80;99.90
59146;DHT22;44928;53.074;6.646;2023-07-24T05:13:06;16.90;99.90
59146;DHT22;44928;53.074;6.646;2023-07-24T05:15:32;16.90;99.90
59146;DHT22;44928;53.074;6.646;2023-07-24T05:17:58;16.90;99.90
59146;DHT22;44928;53.074;6.646;2023-07-24T05:20:23;16.90;99.90
59146;DHT22;44928;53.074;6.646;2023-07-24T05:22:49;17.00;99.90
59146;DHT22;44928;53.074;6.646;2023-07-24T05:25:15;16.80;99.90
59146;DHT22;44928;53.074;6.646;2023-07-24T05:27:41;17.00;99.90
59146;DHT22;44928;53.074;6.646;2023-07-24T05:30:07;16.90;99.90
59146;DHT22;44928;53.074;6.646;2023-07-24T05:32:33;17.00;99.90
59146;DHT22;44928;53.074;6.646;2023-07-24T05:34:58;17.00;99.90
59146;DHT22;44928;53.074;6.646;2023-07-24T05:37:24;16.90;99.90
59146;DHT22;44928;53.074;6.646;2023-07-24T05:39:50;17.00;99.90
59146;DHT22;44928;53.074;6.646;2023-07-24T05:42:16;17.30;99.90
59146;DHT22;44928;53.074;6.646;2023-07-24T05:44:42;17.00;99.90
59146;DHT22;44928;53.074;6.646;2023-07-24T05:47:08;17.20;99.90
59146;DHT22;44928;53.074;6.646;2023-07-24T05:49:34;17.00;99.90
59146;DHT22;44928;53.074;6.646;2023-07-24T05:51:59;17.20;99.90
59146;DHT22;44928;53.074;6.646;2023-07-24T05:54:25;17.10;99.90
59146;DHT22;44928;53.074;6.646;2023-07-24T05:56:52;17.20;99.90
59146;DHT22;44928;53.074;6.646;2023-07-24T05:59:18;17.20;99.90
59146;DHT22;44928;53.074;6.646;2023-07-24T06:01:44;17.20;99.90
59146;DHT22;44928;53.074;6.646;2023-07-24T06:04:09;17.30;99.90
59146;DHT22;44928;53.074;6.646;2023-07-24T06:06:35;17.40;99.90
59146;DHT22;44928;53.074;6.646;2023-07-24T06:09:02;17.30;99.90
59146;DHT22;44928;53.074;6.646;2023-07-24T06:11:28;17.40;99.90
59146;DHT22;44928;53.074;6.646;2023-07-24T06:13:54;17.30;99.90
59146;DHT22;44928;53.074;6.646;2023-07-24T06:16:20;17.20;99.90
59146;DHT22;44928;53.074;6.646;2023-07-24T06:18:46;17.40;99.90
59146;DHT22;44928;53.074;6.646;2023-07-24T06:21:11;17.40;99.90
59146;DHT22;44928;53.074;6.646;2023-07-24T06:23:37;17.50;99.90
59146;DHT22;44928;53.074;6.646;2023-07-24T06:26:03;17.20;99.90
59146;DHT22;44928;53.074;6.646;2023-07-24T06:28:29;17.30;99.90
59146;DHT22;44928;53.074;6.646;2023-07-24T06:30:55;17.40;99.90
59146;DHT22;44928;53.074;6.646;2023-07-24T06:33:21;17.50;99.90
59146;DHT22;44928;53.074;6.646;2023-07-24T06:35:50;17.50;99.90
59146;DHT22;44928;53.074;6.646;2023-07-24T06:38:16;17.50;99.90
59146;DHT22;44928;53.074;6.646;2023-07-24T06:40:42;17.40;99.90
59146;DHT22;44928;53.074;6.646;2023-07-24T06:43:08;17.60;99.90
59146;DHT22;44928;53.074;6.646;2023-07-24T06:45:34;17.70;99.90
59146;DHT22;44928;53.074;6.646;2023-07-24T06:47:59;17.70;99.90
59146;DHT22;44928;53.074;6.646;2023-07-24T06:50:25;17.70;99.90
59146;DHT22;44928;53.074;6.646;2023-07-24T06:52:51;17.90;99.90
59146;DHT22;44928;53.074;6.646;2023-07-24T06:55:19;17.60;99.90
59146;DHT22;44928;53.074;6.646;2023-07-24T06:57:45;17.90;99.90
59146;DHT22;44928;53.074;6.646;2023-07-24T07:00:11;18.10;99.90
59146;DHT22;44928;53.074;6.646;2023-07-24T07:02:38;17.90;99.90
59146;DHT22;44928;53.074;6.646;2023-07-24T07:05:04;18.00;99.90
59146;DHT22;44928;53.074;6.646;2023-07-24T07:07:30;17.90;99.90
59146;DHT22;44928;53.074;6.646;2023-07-24T07:09:56;18.00;99.90
59146;DHT22;44928;53.074;6.646;2023-07-24T07:12:22;18.00;99.90
59146;DHT22;44928;53.074;6.646;2023-07-24T07:14:48;18.10;99.90
59146;DHT22;44928;53.074;6.646;2023-07-24T07:17:13;18.20;99.90
59146;DHT22;44928;53.074;6.646;2023-07-24T07:19:40;18.10;99.90
59146;DHT22;44928;53.074;6.646;2023-07-24T07:22:11;18.00;99.90
59146;DHT22;44928;53.074;6.646;2023-07-24T07:24:40;18.30;99.90
59146;DHT22;44928;53.074;6.646;2023-07-24T07:27:06;18.30;99.90
59146;DHT22;44928;53.074;6.646;2023-07-24T07:29:31;18.30;99.90
59146;DHT22;44928;53.074;6.646;2023-07-24T07:31:57;18.30;99.90
59146;DHT22;44928;53.074;6.646;2023-07-24T07:34:23;18.30;99.90
59146;DHT22;44928;53.074;6.646;2023-07-24T07:36:49;18.30;99.90
59146;DHT22;44928;53.074;6.646;2023-07-24T07:39:15;18.40;99.90
59146;DHT22;44928;53.074;6.646;2023-07-24T07:41:40;18.40;99.90
59146;DHT22;44928;53.074;6.646;2023-07-24T07:44:06;18.30;99.90
59146;DHT22;44928;53.074;6.646;2023-07-24T07:46:32;18.50;99.90
59146;DHT22;44928;53.074;6.646;2023-07-24T07:48:58;18.50;99.90
59146;DHT22;44928;53.074;6.646;2023-07-24T07:51:24;18.40;99.90
59146;DHT22;44928;53.074;6.646;2023-07-24T07:53:51;18.60;99.90
59146;DHT22;44928;53.074;6.646;2023-07-24T07:56:17;18.60;99.90
59146;DHT22;44928;53.074;6.646;2023-07-24T07:58:43;18.60;99.90
59146;DHT22;44928;53.074;6.646;2023-07-24T08:01:09;18.60;99.90
59146;DHT22;44928;53.074;6.646;2023-07-24T08:03:34;18.70;99.90
59146;DHT22;44928;53.074;6.646;2023-07-24T08:06:00;18.70;99.90
59146;DHT22;44928;53.074;6.646;2023-07-24T08:08:26;18.70;99.90
59146;DHT22;44928;53.074;6.646;2023-07-24T08:10:52;18.80;99.90
59146;DHT22;44928;53.074;6.646;2023-07-24T08:13:18;18.90;99.90
59146;DHT22;44928;53.074;6.646;2023-07-24T08:15:44;18.70;99.90
59146;DHT22;44928;53.074;6.646;2023-07-24T08:18:12;18.80;99.90
59146;DHT22;44928;53.074;6.646;2023-07-24T08:20:38;18.70;99.90
59146;DHT22;44928;53.074;6.646;2023-07-24T08:23:05;18.80;99.90
59146;DHT22;44928;53.074;6.646;2023-07-24T08:25:31;19.00;99.90
59146;DHT22;44928;53.074;6.646;2023-07-24T08:27:57;18.90;99.90
59146;DHT22;44928;53.074;6.646;2023-07-24T08:30:23;18.70;99.90
59146;DHT22;44928;53.074;6.646;2023-07-24T08:32:48;18.90;99.90
59146;DHT22;44928;53.074;6.646;2023-07-24T08:35:16;19.00;99.90
59146;DHT22;44928;53.074;6.646;2023-07-24T08:37:43;19.00;99.90
59146;DHT22;44928;53.074;6.646;2023-07-24T08:40:10;18.80;99.90
59146;DHT22;44928;53.074;6.646;2023-07-24T08:42:39;18.80;99.90
59146;DHT22;44928;53.074;6.646;2023-07-24T08:45:11;19.10;99.90
59146;DHT22;44928;53.074;6.646;2023-07-24T08:47:41;19.10;99.90
59146;DHT22;44928;53.074;6.646;2023-07-24T08:50:10;19.20;99.90
59146;DHT22;44928;53.074;6.646;2023-07-24T08:52:39;19.00;99.90
59146;DHT22;44928;53.074;6.646;2023-07-24T08:55:06;19.10;99.90
59146;DHT22;44928;53.074;6.646;2023-07-24T08:57:32;19.30;99.90
59146;DHT22;44928;53.074;6.646;2023-07-24T08:59:58;19.40;99.90
59146;DHT22;44928;53.074;6.646;2023-07-24T09:02:26;19.40;99.90
59146;DHT22;44928;53.074;6.646;2023-07-24T09:04:52;19.30;99.90
59146;DHT22;44928;53.074;6.646;2023-07-24T09:07:18;19.30;99.90
59146;DHT22;44928;53.074;6.646;2023-07-24T09:09:47;19.50;99.90
59146;DHT22;44928;53.074;6.646;2023-07-24T09:12:15;19.20;99.90
59146;DHT22;44928;53.074;6.646;2023-07-24T09:14:42;19.60;99.90
59146;DHT22;44928;53.074;6.646;2023-07-24T09:17:11;19.30;99.90
59146;DHT22;44928;53.074;6.646;2023-07-24T09:19:37;19.60;99.90
59146;DHT22;44928;53.074;6.646;2023-07-24T09:22:14;19.40;99.90
59146;DHT22;44928;53.074;6.646;2023-07-24T09:24:54;19.70;99.90
59146;DHT22;44928;53.074;6.646;2023-07-24T09:27:24;19.90;99.90
59146;DHT22;44928;53.074;6.646;2023-07-24T09:29:50;20.10;99.90
59146;DHT22;44928;53.074;6.646;2023-07-24T09:32:23;20.20;99.90
59146;DHT22;44928;53.074;6.646;2023-07-24T09:34:50;20.30;99.90
59146;DHT22;44928;53.074;6.646;2023-07-24T09:37:33;20.40;99.90
59146;DHT22;44928;53.074;6.646;2023-07-24T09:40:00;20.50;99.90
59146;DHT22;44928;53.074;6.646;2023-07-24T09:42:33;20.50;99.90
59146;DHT22;44928;53.074;6.646;2023-07-24T09:45:00;20.60;99.90
59146;DHT22;44928;53.074;6.646;2023-07-24T09:47:26;20.70;99.90
59146;DHT22;44928;53.074;6.646;2023-07-24T09:49:52;21.00;99.90
59146;DHT22;44928;53.074;6.646;2023-07-24T09:52:19;21.20;99.90
59146;DHT22;44928;53.074;6.646;2023-07-24T09:55:10;21.60;99.90
59146;DHT22;44928;53.074;6.646;2023-07-24T09:57:37;21.60;99.90
59146;DHT22;44928;53.074;6.646;2023-07-24T10:00:03;21.40;99.90
59146;DHT22;44928;53.074;6.646;2023-07-24T10:04:56;21.30;99.90
59146;DHT22;44928;53.074;6.646;2023-07-24T10:07:25;21.30;99.90
59146;DHT22;44928;53.074;6.646;2023-07-24T10:09:51;21.30;99.90
59146;DHT22;44928;53.074;6.646;2023-07-24T10:12:18;21.50;99.90
59146;DHT22;44928;53.074;6.646;2023-07-24T10:14:46;21.70;99.90
59146;DHT22;44928;53.074;6.646;2023-07-24T10:17:13;21.80;99.90
59146;DHT22;44928;53.074;6.646;2023-07-24T10:19:42;21.70;99.90
59146;DHT22;44928;53.074;6.646;2023-07-24T10:22:16;21.80;99.90
59146;DHT22;44928;53.074;6.646;2023-07-24T10:24:43;22.10;99.90
59146;DHT22;44928;53.074;6.646;2023-07-24T10:27:10;22.20;99.90
59146;DHT22;44928;53.074;6.646;2023-07-24T10:29:36;22.20;99.90
59146;DHT22;44928;53.074;6.646;2023-07-24T10:32:02;22.00;99.90
59146;DHT22;44928;53.074;6.646;2023-07-24T10:34:38;21.90;99.90
59146;DHT22;44928;53.074;6.646;2023-07-24T10:37:07;21.90;99.90
59146;DHT22;44928;53.074;6.646;2023-07-24T10:39:39;21.90;99.90
59146;DHT22;44928;53.074;6.646;2023-07-24T10:42:10;21.90;99.90
59146;DHT22;44928;53.074;6.646;2023-07-24T10:44:36;21.80;99.90
59146;DHT22;44928;53.074;6.646;2023-07-24T10:47:03;21.80;99.90
59146;DHT22;44928;53.074;6.646;2023-07-24T10:49:29;21.90;99.90
59146;DHT22;44928;53.074;6.646;2023-07-24T10:51:56;22.10;99.90
59146;DHT22;44928;53.074;6.646;2023-07-24T10:54:22;22.10;99.90
59146;DHT22;44928;53.074;6.646;2023-07-24T10:56:48;22.20;99.90
59146;DHT22;44928;53.074;6.646;2023-07-24T10:59:14;22.20;99.90
59146;DHT22;44928;53.074;6.646;2023-07-24T11:01:40;22.20;99.90
59146;DHT22;44928;53.074;6.646;2023-07-24T11:04:07;22.10;99.90
59146;DHT22;44928;53.074;6.646;2023-07-24T11:06:33;22.10;99.90
59146;DHT22;44928;53.074;6.646;2023-07-24T11:08:59;21.90;99.90
59146;DHT22;44928;53.074;6.646;2023-07-24T11:11:35;21.90;99.90
59146;DHT22;44928;53.074;6.646;2023-07-24T11:14:02;21.80;99.90
59146;DHT22;44928;53.074;6.646;2023-07-24T11:16:28;21.80;99.90
59146;DHT22;44928;53.074;6.646;2023-07-24T11:18:56;21.80;99.90
59146;DHT22;44928;53.074;6.646;2023-07-24T11:21:23;21.70;99.90
59146;DHT22;44928;53.074;6.646;2023-07-24T11:23:54;21.70;99.90
59146;DHT22;44928;53.074;6.646;2023-07-24T11:26:21;21.70;99.90
59146;DHT22;44928;53.074;6.646;2023-07-24T11:28:48;21.60;99.90
59146;DHT22;44928;53.074;6.646;2023-07-24T11:31:14;21.50;99.90
59146;DHT22;44928;53.074;6.646;2023-07-24T11:33:41;21.50;99.90
59146;DHT22;44928;53.074;6.646;2023-07-24T11:36:08;21.50;99.90
59146;DHT22;44928;53.074;6.646;2023-07-24T11:38:33;21.50;99.90
59146;DHT22;44928;53.074;6.646;2023-07-24T11:41:01;21.50;99.90
59146;DHT22;44928;53.074;6.646;2023-07-24T11:43:27;21.40;99.90
59146;DHT22;44928;53.074;6.646;2023-07-24T11:45:53;21.40;99.90
59146;DHT22;44928;53.074;6.646;2023-07-24T11:48:23;21.40;99.90
59146;DHT22;44928;53.074;6.646;2023-07-24T11:50:54;21.40;99.90
59146;DHT22;44928;53.074;6.646;2023-07-24T11:53:25;21.40;99.90
59146;DHT22;44928;53.074;6.646;2023-07-24T11:55:52;21.40;99.90
59146;DHT22;44928;53.074;6.646;2023-07-24T11:58:19;21.40;99.90
59146;DHT22;44928;53.074;6.646;2023-07-24T12:00:46;21.40;99.90
59146;DHT22;44928;53.074;6.646;2023-07-24T12:03:13;21.40;99.90
59146;DHT22;44928;53.074;6.646;2023-07-24T12:08:06;21.30;99.90
59146;DHT22;44928;53.074;6.646;2023-07-24T12:10:38;21.20;99.90
59146;DHT22;44928;53.074;6.646;2023-07-24T12:13:05;21.20;99.90
59146;DHT22;44928;53.074;6.646;2023-07-24T12:15:31;21.10;99.90
59146;DHT22;44928;53.074;6.646;2023-07-24T12:17:57;21.20;99.90
59146;DHT22;44928;53.074;6.646;2023-07-24T12:20:23;21.20;99.90
59146;DHT22;44928;53.074;6.646;2023-07-24T12:22:49;21.10;99.90
59146;DHT22;44928;53.074;6.646;2023-07-24T12:25:15;21.20;99.90
59146;DHT22;44928;53.074;6.646;2023-07-24T12:27:42;21.40;99.90
59146;DHT22;44928;53.074;6.646;2023-07-24T12:30:08;21.60;99.90
59146;DHT22;44928;53.074;6.646;2023-07-24T12:32:35;21.80;99.90
59146;DHT22;44928;53.074;6.646;2023-07-24T12:35:01;21.80;99.90
59146;DHT22;44928;53.074;6.646;2023-07-24T12:37:27;21.70;99.90
59146;DHT22;44928;53.074;6.646;2023-07-24T12:39:54;21.60;99.90
59146;DHT22;44928;53.074;6.646;2023-07-24T12:42:20;21.40;99.90
59146;DHT22;44928;53.074;6.646;2023-07-24T12:44:45;21.30;99.90
59146;DHT22;44928;53.074;6.646;2023-07-24T12:47:12;21.20;99.90
59146;DHT22;44928;53.074;6.646;2023-07-24T12:49:38;20.70;99.90
59146;DHT22;44928;53.074;6.646;2023-07-24T12:52:04;20.30;99.90
59146;DHT22;44928;53.074;6.646;2023-07-24T12:54:31;19.80;99.90
59146;DHT22;44928;53.074;6.646;2023-07-24T12:56:56;19.50;99.90
59146;DHT22;44928;53.074;6.646;2023-07-24T12:59:22;19.30;99.90
59146;DHT22;44928;53.074;6.646;2023-07-24T13:01:48;19.30;99.90
59146;DHT22;44928;53.074;6.646;2023-07-24T13:04:14;19.30;99.90
59146;DHT22;44928;53.074;6.646;2023-07-24T13:06:40;19.40;99.90
59146;DHT22;44928;53.074;6.646;2023-07-24T13:09:06;19.40;99.90
59146;DHT22;44928;53.074;6.646;2023-07-24T13:11:32;19.40;99.90
59146;DHT22;44928;53.074;6.646;2023-07-24T13:13:58;19.40;99.90
59146;DHT22;44928;53.074;6.646;2023-07-24T13:16:24;19.30;99.90
59146;DHT22;44928;53.074;6.646;2023-07-24T13:18:50;19.30;99.90
59146;DHT22;44928;53.074;6.646;2023-07-24T13:21:16;19.30;99.90
59146;DHT22;44928;53.074;6.646;2023-07-24T13:23:42;19.40;99.90
59146;DHT22;44928;53.074;6.646;2023-07-24T13:26:08;19.50;99.90
59146;DHT22;44928;53.074;6.646;2023-07-24T13:28:36;19.50;99.90
59146;DHT22;44928;53.074;6.646;2023-07-24T13:31:18;19.60;99.90
59146;DHT22;44928;53.074;6.646;2023-07-24T13:33:45;19.50;99.90
59146;DHT22;44928;53.074;6.646;2023-07-24T13:36:11;19.50;99.90
59146;DHT22;44928;53.074;6.646;2023-07-24T13:38:39;19.50;99.90
59146;DHT22;44928;53.074;6.646;2023-07-24T13:41:05;19.40;99.90
59146;DHT22;44928;53.074;6.646;2023-07-24T13:43:32;19.30;99.90
59146;DHT22;44928;53.074;6.646;2023-07-24T13:45:58;19.30;99.90
59146;DHT22;44928;53.074;6.646;2023-07-24T13:48:26;19.30;99.90
59146;DHT22;44928;53.074;6.646;2023-07-24T13:50:52;19.20;99.90
59146;DHT22;44928;53.074;6.646;2023-07-24T13:53:19;19.30;99.90
59146;DHT22;44928;53.074;6.646;2023-07-24T13:55:44;19.30;99.90
59146;DHT22;44928;53.074;6.646;2023-07-24T13:58:10;19.20;99.90
59146;DHT22;44928;53.074;6.646;2023-07-24T14:00:37;19.20;99.90
59146;DHT22;44928;53.074;6.646;2023-07-24T14:03:03;19.20;99.90
59146;DHT22;44928;53.074;6.646;2023-07-24T14:05:29;19.20;99.90
59146;DHT22;44928;53.074;6.646;2023-07-24T14:07:56;19.20;99.90
59146;DHT22;44928;53.074;6.646;2023-07-24T14:10:21;19.20;99.90
59146;DHT22;44928;53.074;6.646;2023-07-24T14:12:47;19.20;99.90
59146;DHT22;44928;53.074;6.646;2023-07-24T14:15:13;19.10;99.90
59146;DHT22;44928;53.074;6.646;2023-07-24T14:17:39;19.10;99.90
59146;DHT22;44928;53.074;6.646;2023-07-24T14:20:06;19.00;99.90
59146;DHT22;44928;53.074;6.646;2023-07-24T14:22:32;18.80;99.90
59146;DHT22;44928;53.074;6.646;2023-07-24T14:24:57;18.60;99.90
59146;DHT22;44928;53.074;6.646;2023-07-24T14:27:23;18.50;99.90
59146;DHT22;44928;53.074;6.646;2023-07-24T14:29:49;18.30;99.90
59146;DHT22;44928;53.074;6.646;2023-07-24T14:32:15;18.20;99.90
59146;DHT22;44928;53.074;6.646;2023-07-24T14:34:41;18.10;99.90
59146;DHT22;44928;53.074;6.646;2023-07-24T14:37:07;18.10;99.90
59146;DHT22;44928;53.074;6.646;2023-07-24T14:39:33;18.10;99.90
59146;DHT22;44928;53.074;6.646;2023-07-24T14:41:59;18.10;99.90
59146;DHT22;44928;53.074;6.646;2023-07-24T14:44:26;18.00;99.90
59146;DHT22;44928;53.074;6.646;2023-07-24T14:46:51;18.00;99.90
59146;DHT22;44928;53.074;6.646;2023-07-24T14:49:17;18.10;99.90
59146;DHT22;44928;53.074;6.646;2023-07-24T14:51:43;18.00;99.90
59146;DHT22;44928;53.074;6.646;2023-07-24T14:54:09;17.90;99.90
59146;DHT22;44928;53.074;6.646;2023-07-24T14:56:35;17.80;99.90
59146;DHT22;44928;53.074;6.646;2023-07-24T14:59:04;17.80;99.90
59146;DHT22;44928;53.074;6.646;2023-07-24T15:01:29;17.70;99.90
59146;DHT22;44928;53.074;6.646;2023-07-24T15:03:58;17.80;99.90
59146;DHT22;44928;53.074;6.646;2023-07-24T15:06:24;17.90;99.90
59146;DHT22;44928;53.074;6.646;2023-07-24T15:08:56;18.00;99.90
59146;DHT22;44928;53.074;6.646;2023-07-24T15:11:22;18.00;99.90
59146;DHT22;44928;53.074;6.646;2023-07-24T15:13:49;18.10;99.90
59146;DHT22;44928;53.074;6.646;2023-07-24T15:16:15;18.10;99.90
59146;DHT22;44928;53.074;6.646;2023-07-24T15:18:41;18.10;99.90
59146;DHT22;44928;53.074;6.646;2023-07-24T15:21:07;18.10;99.90
59146;DHT22;44928;53.074;6.646;2023-07-24T15:23:34;18.00;99.90
59146;DHT22;44928;53.074;6.646;2023-07-24T15:26:00;18.00;99.90
59146;DHT22;44928;53.074;6.646;2023-07-24T15:28:26;17.90;99.90
59146;DHT22;44928;53.074;6.646;2023-07-24T15:30:52;18.00;99.90
59146;DHT22;44928;53.074;6.646;2023-07-24T15:33:18;17.90;99.90
59146;DHT22;44928;53.074;6.646;2023-07-24T15:35:43;17.80;99.90